Terminal Aerodrome Forecast
Issued by NWS

Home | Current Version | Previous Version | Text Only | Print | Product List | Glossary On
Versions: 1 2 3 4 5 6 7 8 9 10 11 12 13 14 15 16 17 18 19 20 21 22 23 24 25 26 27 28 29 30 31 32 33 34 35 36 37
000
FTUS43 KEAX 201722
TAFIXD
TAF
KIXD 201722Z 2018/2118 19008KT P6SM FEW250
     FM210300 17007KT P6SM VCTS BKN100CB
     FM210800 16008KT P6SM -TSRA SCT025 BKN040CB
     FM211500 15009KT P6SM VCSH BKN045=

USA.gov is the U.S. government's official web portal to all federal, state and local government web resources and services.